Time;durP1;ratioP1;P1;durP2;ratioP2;P2;SDS_P1;SDS_P2;PMS_P1;PMS_P2;Temp;Humidity;BMP_temperature;BMP_pressure;BME280_temperature;BME280_humidity;BME280_pressure;Samples;Min_cycle;Max_cycle;Signal;HPM_P1;HPM_P2
2022/12/27 00:01:17;;;;;;;6.70;4.17;;;;;;;11.13;72.53;102179.98;1702870;82;21041;-56
2022/12/27 00:03:44;;;;;;;8.43;3.92;;;;;;;11.14;72.50;102172.20;1668892;84;21110;-56
2022/12/27 00:06:19;;;;;;;6.90;3.60;;;;;;;11.15;72.55;102171.31;1692478;83;21086;-56
2022/12/27 00:08:45;;;;;;;9.23;4.10;;;;;;;11.16;72.56;102167.85;1697529;82;21104;-56
2022/12/27 00:11:18;;;;;;;8.60;3.92;;;;;;;11.18;72.59;102156.12;1649473;86;21058;-56
2022/12/27 00:13:45;;;;;;;8.13;4.25;;;;;;;11.19;72.61;102160.02;1653902;84;21073;-56
2022/12/27 00:16:16;;;;;;;8.28;3.95;;;;;;;11.22;72.62;102161.75;1663124;84;21026;-56
2022/12/27 00:18:43;;;;;;;7.85;3.47;;;;;;;11.23;72.66;102151.78;1675115;84;21082;-56
2022/12/27 00:21:10;;;;;;;11.10;4.85;;;;;;;11.25;72.65;102148.73;1676812;83;21062;-56
2022/12/27 00:23:40;;;;;;;9.80;4.10;;;;;;;11.27;72.63;102150.44;1695086;83;21026;-56
2022/12/27 00:26:14;;;;;;;9.95;4.35;;;;;;;11.28;72.62;102152.19;1669825;85;21099;-57
2022/12/27 00:28:40;;;;;;;8.40;3.98;;;;;;;11.31;72.57;102148.72;1666633;85;21079;-56
2022/12/27 00:31:08;;;;;;;10.65;4.33;;;;;;;11.33;72.52;102146.51;1672572;84;21095;-56
2022/12/27 00:33:35;;;;;;;12.65;4.60;;;;;;;11.36;72.42;102142.61;1644389;85;21031;-56
2022/12/27 00:36:04;;;;;;;7.08;3.90;;;;;;;11.37;72.36;102138.27;1659719;85;21017;-56
2022/12/27 00:38:31;;;;;;;10.78;4.55;;;;;;;11.37;72.30;102129.99;1674962;83;21069;-56
2022/12/27 00:40:58;;;;;;;10.78;5.00;;;;;;;11.37;72.25;102126.08;1735748;80;21505;-56
2022/12/27 00:43:24;;;;;;;10.53;4.22;;;;;;;11.38;72.35;102134.78;1799414;78;21710;-56
2022/12/27 00:45:51;;;;;;;10.95;4.75;;;;;;;11.37;72.26;102131.30;1792128;78;21033;-56
2022/12/27 00:48:17;;;;;;;6.67;4.03;;;;;;;11.39;72.23;102128.71;1790598;78;21045;-56
2022/12/27 00:50:44;;;;;;;9.38;4.90;;;;;;;11.38;72.24;102125.23;1793874;78;20998;-56
2022/12/27 00:53:11;;;;;;;12.23;4.28;;;;;;;11.38;72.28;102122.63;1789512;78;21056;-56
2022/12/27 00:55:38;;;;;;;12.60;4.72;;;;;;;11.38;72.27;102116.11;1796767;78;21563;-56
2022/12/27 00:58:05;;;;;;;14.60;5.30;;;;;;;11.39;72.32;102124.38;1796181;78;21018;-56
2022/12/27 01:00:32;;;;;;;8.50;4.35;;;;;;;11.38;72.38;102123.92;1798866;78;20994;-56
2022/12/27 01:02:58;;;;;;;11.43;5.00;;;;;;;11.38;72.40;102113.50;1791695;78;21038;-56
2022/12/27 01:05:25;;;;;;;9.38;4.40;;;;;;;11.39;72.37;102113.95;1798551;78;21084;-56
2022/12/27 01:07:54;;;;;;;10.65;4.72;;;;;;;11.39;72.46;102108.73;1803224;77;20970;-56
2022/12/27 01:10:21;;;;;;;8.15;4.30;;;;;;;11.38;72.52;102104.37;1795855;78;20990;-56
2022/12/27 01:12:47;;;;;;;10.13;4.72;;;;;;;11.36;72.60;102094.40;1810721;78;21002;-56
2022/12/27 01:15:14;;;;;;;11.80;4.72;;;;;;;11.35;72.76;102092.65;1790540;78;21131;-56
2022/12/27 01:17:40;;;;;;;8.98;4.50;;;;;;;11.35;72.86;102084.83;1803660;78;21104;-57
2022/12/27 01:20:09;;;;;;;13.08;5.22;;;;;;;11.34;72.96;102077.91;1797221;78;21053;-56
2022/12/27 01:22:35;;;;;;;13.58;5.37;;;;;;;11.35;72.99;102076.17;1788739;78;21287;-56
2022/12/27 01:25:04;;;;;;;10.23;4.85;;;;;;;11.37;72.97;102071.36;1789622;79;21049;-56
2022/12/27 01:27:31;;;;;;;12.60;5.25;;;;;;;11.37;73.00;102073.96;1798338;78;21490;-56
2022/12/27 01:29:57;;;;;;;10.45;4.90;;;;;;;11.38;73.00;102060.08;1798848;78;20963;-56
2022/12/27 01:32:25;;;;;;;11.43;5.70;;;;;;;11.38;73.01;102062.68;1805581;77;21022;-56
2022/12/27 01:34:51;;;;;;;12.37;5.25;;;;;;;11.39;73.10;102051.40;1791662;78;20994;-56
2022/12/27 01:37:18;;;;;;;9.35;4.83;;;;;;;11.40;73.16;102050.51;1795863;78;21088;-57
2022/12/27 01:39:46;;;;;;;11.60;5.35;;;;;;;11.42;73.22;102056.58;1797280;79;21100;-56
2022/12/27 01:45:15;;;;;;;11.93;5.97;;;;;;;11.43;73.44;102051.81;1792686;78;21014;-56
2022/12/27 01:48:02;;;;;;;12.10;5.50;;;;;;;11.46;73.44;102034.84;1752326;80;21073;-56
2022/12/27 01:50:43;;;;;;;6.75;4.65;;;;;;;11.48;73.51;102035.28;1753920;80;21085;-56
2022/12/27 01:53:23;;;;;;;10.18;5.78;;;;;;;11.48;73.62;102033.09;1679140;84;21148;-56
2022/12/27 01:56:01;;;;;;;12.00;5.45;;;;;;;11.46;73.71;102017.89;1685608;83;21049;-56
2022/12/27 01:58:34;;;;;;;11.90;5.95;;;;;;;11.48;73.77;102026.16;1686471;84;21057;-56
2022/12/27 02:01:02;;;;;;;16.20;6.22;;;;;;;11.48;73.88;102026.16;1691839;83;21731;-57
2022/12/27 02:03:36;;;;;;;12.63;5.47;;;;;;;11.48;73.91;102028.77;1704179;83;21084;-56
2022/12/27 02:06:05;;;;;;;16.23;5.35;;;;;;;11.50;73.93;102029.63;1706015;83;21088;-57
2022/12/27 02:08:44;;;;;;;15.00;4.72;;;;;;;11.51;73.93;102023.09;1640092;85;21107;-56
2022/12/27 02:11:10;;;;;;;13.15;6.17;;;;;;;11.53;73.95;102024.38;1661463;85;21130;-56
2022/12/27 02:13:40;;;;;;;14.20;5.65;;;;;;;11.57;73.80;102024.78;1632994;86;21067;-56
2022/12/27 02:16:17;;;;;;;16.30;6.60;;;;;;;11.58;73.66;102020.02;1624424;86;21120;-57
2022/12/27 02:18:45;;;;;;;15.03;6.72;;;;;;;11.59;73.69;102023.03;1597185;88;21112;-56
2022/12/27 02:21:29;;;;;;;13.20;6.95;;;;;;;11.61;73.66;102012.16;1596834;88;21102;-56
2022/12/27 02:24:17;;;;;;;14.73;6.20;;;;;;;11.61;73.62;102010.86;1601988;88;21158;-56
2022/12/27 02:27:13;;;;;;;13.05;6.50;;;;;;;11.61;73.55;101999.13;1543913;91;21124;-57
2022/12/27 02:29:54;;;;;;;13.32;5.80;;;;;;;11.61;73.55;101993.91;1497097;95;21762;-56
2022/12/27 02:32:42;;;;;;;14.63;5.55;;;;;;;11.61;73.57;101989.58;1517818;94;21107;-56
2022/12/27 02:35:20;;;;;;;12.98;6.58;;;;;;;11.61;73.59;101984.79;1489593;95;21146;-56
2022/12/27 02:38:11;;;;;;;12.93;6.35;;;;;;;11.61;73.69;101975.66;1491236;96;21120;-56
2022/12/27 02:59:15;;;;;;;12.13;5.95;;;;;;;11.59;73.89;101972.20;1419338;100;21174;-56
2022/12/27 03:05:02;;;;;;;14.05;5.65;;;;;;;11.60;73.94;101971.34;1474196;94;21125;-57
2022/12/27 03:07:43;;;;;;;11.05;5.62;;;;;;;11.60;73.97;101973.95;1429331;99;21109;-57
2022/12/27 03:16:36;;;;;;;14.05;6.08;;;;;;;11.60;74.20;101972.65;1455778;98;21116;-57
2022/12/27 03:19:14;;;;;;;10.55;5.72;;;;;;;11.62;74.22;101977.41;1450472;98;21148;-57
2022/12/27 03:27:30;;;;;;;12.63;6.05;;;;;;;11.65;74.22;101974.77;1398536;100;21162;-57
2022/12/27 03:33:12;;;;;;;13.22;6.70;;;;;;;11.65;74.21;101976.95;1422017;98;21128;-57
2022/12/27 03:39:04;;;;;;;14.90;6.62;;;;;;;11.65;74.11;101955.22;1352152;104;21206;-57
2022/12/27 03:44:38;;;;;;;12.95;6.60;;;;;;;11.64;74.08;101935.25;1437558;98;21145;-57
2022/12/27 03:47:16;;;;;;;15.75;6.60;;;;;;;11.66;74.07;101932.19;1438628;99;21713;-57
2022/12/27 03:49:49;;;;;;;13.10;6.00;;;;;;;11.67;74.14;101940.45;1366953;104;21203;-57
2022/12/27 03:52:22;;;;;;;14.33;6.00;;;;;;;11.68;74.07;101943.51;1368746;103;21255;-57
2022/12/27 03:54:50;;;;;;;13.98;6.70;;;;;;;11.68;74.07;101942.20;1391389;101;21084;-57
2022/12/27 03:57:21;;;;;;;12.10;6.40;;;;;;;11.70;74.16;101945.66;1388671;102;21153;-57
2022/12/27 03:59:47;;;;;;;13.13;6.20;;;;;;;11.70;74.15;101940.02;1388795;102;21137;-57
2022/12/27 04:02:14;;;;;;;14.25;7.15;;;;;;;11.74;74.10;101940.85;1371568;103;21155;-57
2022/12/27 04:04:42;;;;;;;13.28;6.05;;;;;;;11.73;74.08;101949.53;1387986;102;21155;-57
2022/12/27 04:07:12;;;;;;;12.35;6.87;;;;;;;11.70;74.18;101936.11;1388595;102;21659;-56
2022/12/27 04:34:43;;;;;;;11.45;6.95;;;;;;;11.84;73.70;101940.77;1520263;90;21104;-57
2022/12/27 04:37:16;;;;;;;10.75;7.05;;;;;;;11.85;73.63;101949.01;1558553;91;21603;-57
2022/12/27 04:56:14;;;;;;;18.80;7.85;;;;;;;11.87;73.36;101935.98;1662433;85;21071;-57
2022/12/27 05:02:01;;;;;;;17.17;8.13;;;;;;;11.87;73.25;101932.91;1663404;85;21704;-59
2022/12/27 05:03:54;;;;;;;14.35;7.65;;;;;;;11.86;73.21;101923.80;1660931;86;21106;-57
2022/12/27 05:06:21;;;;;;;20.37;7.92;;;;;;;11.86;73.22;101926.41;1680661;83;21090;-57
2022/12/27 05:14:17;;;;;;;20.37;7.85;;;;;;;11.79;73.30;101916.46;1658591;86;21067;-57
2022/12/27 05:16:44;;;;;;;17.07;7.45;;;;;;;11.78;73.25;101911.27;1651572;86;21093;-57
2022/12/27 05:19:12;;;;;;;19.05;8.68;;;;;;;11.77;73.22;101922.56;1658446;85;21652;-57
2022/12/27 05:26:58;;;;;;;16.87;8.40;;;;;;;11.77;73.28;101923.86;1601935;88;21103;-57
2022/12/27 05:29:24;;;;;;;20.35;9.20;;;;;;;11.76;73.24;101914.33;1611004;88;21077;-57
2022/12/27 05:31:51;;;;;;;24.55;10.03;;;;;;;11.76;73.24;101907.81;1622220;88;21047;-57
2022/12/27 05:34:17;;;;;;;20.35;8.13;;;;;;;11.76;73.33;101907.38;1626389;87;21118;-57
2022/12/27 05:36:44;;;;;;;14.05;8.23;;;;;;;11.77;73.28;101899.09;1660926;84;21026;-57
2022/12/27 05:39:11;;;;;;;17.82;8.50;;;;;;;11.78;73.26;101896.92;1690975;84;21084;-57
2022/12/27 05:41:38;;;;;;;12.90;7.83;;;;;;;11.76;73.26;101891.73;1682803;84;21098;-57
2022/12/27 05:44:04;;;;;;;12.90;7.55;;;;;;;11.78;73.27;101891.70;1681561;84;21081;-58
2022/12/27 05:46:33;;;;;;;12.43;7.15;;;;;;;11.78;73.31;101885.19;1683725;84;21584;-57
2022/12/27 05:49:00;;;;;;;17.48;7.97;;;;;;;11.77;73.21;101876.92;1683231;84;21050;-57
2022/12/27 05:51:26;;;;;;;22.75;8.90;;;;;;;11.77;73.27;101883.44;1686885;84;21080;-57
2022/12/27 05:53:53;;;;;;;15.80;7.92;;;;;;;11.76;73.22;101866.09;1683651;84;21062;-57
2022/12/27 05:56:20;;;;;;;15.55;8.15;;;;;;;11.74;73.34;101870.45;1686827;84;21113;-57
2022/12/27 05:58:47;;;;;;;18.55;7.92;;;;;;;11.72;73.35;101871.78;1680440;84;21145;-57
2022/12/27 06:01:16;;;;;;;11.75;7.67;;;;;;;11.70;73.41;101868.75;1722361;78;21674;-57
2022/12/27 06:03:43;;;;;;;16.48;8.25;;;;;;;11.70;73.41;101868.32;1806735;78;21035;-57
2022/12/27 06:06:10;;;;;;;15.98;7.90;;;;;;;11.69;73.47;101863.09;1756730;79;21026;-57
2022/12/27 06:31:39;;;;;;;16.97;8.98;;;;;;;9.69;87.47;101846.20;1802572;79;27223;-57
2022/12/27 06:34:06;;;;;;;18.23;9.15;;;;;;;10.68;79.86;101852.02;1761642;80;21125;-56
2022/12/27 06:36:32;;;;;;;10.88;7.80;;;;;;;10.86;78.40;101852.80;1762676;80;21561;-56
2022/12/27 06:39:00;;;;;;;10.32;7.60;;;;;;;10.90;77.93;101841.48;1765105;80;21037;-56
2022/12/27 06:41:26;;;;;;;16.57;8.18;;;;;;;10.94;77.71;101841.05;1764036;80;21010;-56
2022/12/27 06:43:55;;;;;;;14.38;8.18;;;;;;;10.96;77.59;101838.88;1749640;79;21045;-56
2022/12/27 06:46:23;;;;;;;14.83;8.10;;;;;;;10.97;77.48;101840.59;1766576;80;21025;-56
2022/12/27 06:48:50;;;;;;;19.80;8.95;;;;;;;11.02;77.40;101838.84;1752134;80;21075;-56
2022/12/27 06:51:18;;;;;;;15.98;8.68;;;;;;;11.06;77.26;101835.34;1754575;81;21054;-56
2022/12/27 06:53:47;;;;;;;16.77;9.00;;;;;;;11.12;77.17;101831.81;1758012;80;21544;-56
2022/12/27 06:56:17;;;;;;;15.78;8.60;;;;;;;11.16;77.11;101829.19;1688807;83;21079;-56
2022/12/27 06:58:45;;;;;;;13.30;7.90;;;;;;;11.21;76.92;101830.00;1687495;83;21032;-56
2022/12/27 07:01:14;;;;;;;16.95;8.98;;;;;;;11.29;76.71;101834.71;1700100;83;21044;-56
2022/12/27 07:03:41;;;;;;;15.23;7.95;;;;;;;11.34;76.54;101831.64;1694816;83;21028;-56
2022/12/27 07:06:10;;;;;;;14.25;8.75;;;;;;;11.40;76.36;101826.38;1692205;82;21055;-56
2022/12/27 07:08:37;;;;;;;13.28;8.78;;;;;;;11.45;76.26;101820.70;1699384;83;21110;-56
2022/12/27 07:11:06;;;;;;;14.78;8.73;;;;;;;11.51;76.04;101819.78;1691233;83;21613;-57
2022/12/27 07:13:38;;;;;;;15.72;8.08;;;;;;;11.56;75.98;101821.05;1689423;83;21096;-56
2022/12/27 07:16:08;;;;;;;18.70;8.53;;;;;;;11.63;75.99;101817.49;1690784;82;21116;-56
2022/12/27 07:18:35;;;;;;;14.75;8.13;;;;;;;11.69;75.77;101817.47;1646124;86;21065;-56
2022/12/27 07:21:10;;;;;;;15.40;8.58;;;;;;;11.76;75.65;101812.63;1631602;87;21137;-57
2022/12/27 07:23:38;;;;;;;18.77;8.75;;;;;;;11.81;75.33;101798.66;1612279;88;21609;-56
2022/12/27 07:26:08;;;;;;;16.45;8.23;;;;;;;11.86;74.95;101798.19;1612063;88;21097;-56
2022/12/27 07:28:36;;;;;;;13.32;8.15;;;;;;;11.91;74.69;101791.62;1583114;90;21160;-57
2022/12/27 07:31:09;;;;;;;18.02;8.30;;;;;;;11.94;74.44;101791.58;1569081;91;21127;-57
2022/12/27 07:33:37;;;;;;;16.17;7.78;;;;;;;11.97;74.04;101786.34;1525156;93;21624;-56
2022/12/27 07:36:06;;;;;;;16.97;7.75;;;;;;;12.00;73.86;101787.59;1538674;92;21108;-57
2022/12/27 07:38:32;;;;;;;13.00;7.83;;;;;;;12.02;73.76;101784.09;1536586;92;21133;-57
2022/12/27 07:41:00;;;;;;;15.20;7.85;;;;;;;12.03;73.43;101782.36;1545285;92;21596;-56
2022/12/27 07:43:32;;;;;;;12.28;7.37;;;;;;;12.06;73.39;101787.52;1546192;92;21153;-57
2022/12/27 07:46:09;;;;;;;17.17;8.55;;;;;;;12.09;73.04;101786.20;1535431;93;21130;-56
2022/12/27 07:48:36;;;;;;;14.83;8.03;;;;;;;12.12;72.84;101797.88;1525715;93;21581;-57
2022/12/27 07:51:03;;;;;;;15.60;8.30;;;;;;;12.15;72.72;101803.08;1542080;92;21087;-56
2022/12/27 07:53:30;;;;;;;16.42;8.08;;;;;;;12.20;72.67;101797.34;1513099;93;21151;-58
2022/12/27 07:55:57;;;;;;;14.28;7.95;;;;;;;12.21;72.51;101794.75;1504547;93;21100;-56
2022/12/27 07:58:24;;;;;;;12.03;7.30;;;;;;;12.22;72.25;101795.16;1569194;90;21095;-57
2022/12/27 08:00:51;;;;;;;10.18;7.55;;;;;;;12.26;72.16;101794.70;1531459;92;21121;-56
2022/12/27 08:03:18;;;;;;;16.95;7.10;;;;;;;12.27;71.89;101783.36;1508892;94;21648;-56
2022/12/27 08:05:48;;;;;;;13.20;6.67;;;;;;;12.28;71.54;101775.97;1562989;91;21076;-57
2022/12/27 08:08:15;;;;;;;10.38;7.28;;;;;;;12.28;71.44;101766.84;1534980;92;21043;-56
2022/12/27 08:10:43;;;;;;;14.05;6.37;;;;;;;12.24;71.33;101765.98;1545064;92;21126;-57
2022/12/27 08:13:10;;;;;;;12.50;6.78;;;;;;;12.24;71.28;101762.08;1542989;91;21152;-57
2022/12/27 08:15:38;;;;;;;12.88;7.05;;;;;;;12.23;71.26;101762.97;1541789;91;21111;-56
2022/12/27 08:18:05;;;;;;;14.93;6.70;;;;;;;12.22;71.29;101756.44;1548908;91;21153;-57
2022/12/27 08:20:32;;;;;;;10.63;7.30;;;;;;;12.22;71.27;101768.19;1550428;90;21074;-57
2022/12/27 08:22:58;;;;;;;11.12;8.13;;;;;;;12.21;71.31;101780.83;1529791;92;21041;-56
2022/12/27 08:25:25;;;;;;;11.88;7.28;;;;;;;12.22;71.38;101784.72;1521497;93;22526;-57
2022/12/27 08:27:52;;;;;;;10.45;7.33;;;;;;;12.06;72.20;101786.22;1531145;92;21112;-57
2022/12/27 08:30:19;;;;;;;15.15;7.65;;;;;;;12.07;72.27;101778.39;1537925;92;21169;-56
2022/12/27 08:32:49;;;;;;;12.35;7.35;;;;;;;12.12;72.08;101779.62;1535903;92;21175;-57
2022/12/27 08:35:17;;;;;;;11.70;7.08;;;;;;;12.15;71.90;101772.64;1563896;90;21626;-57
2022/12/27 08:37:44;;;;;;;12.40;7.15;;;;;;;12.19;71.69;101774.77;1562029;90;21085;-57
2022/12/27 08:40:11;;;;;;;13.88;7.22;;;;;;;12.22;71.54;101773.41;1557726;91;21180;-56
2022/12/27 08:42:39;;;;;;;8.60;6.67;;;;;;;12.25;71.59;101761.64;1559651;91;21093;-57
2022/12/27 08:45:07;;;;;;;11.28;7.83;;;;;;;12.32;71.28;101762.00;1557961;89;21083;-57
2022/12/27 08:47:33;;;;;;;13.15;6.58;;;;;;;12.38;70.94;101757.12;1653150;84;21025;-56
2022/12/27 08:50:00;;;;;;;10.32;6.33;;;;;;;12.44;70.48;101752.70;1656580;86;21041;-56
2022/12/27 08:52:28;;;;;;;8.85;6.85;;;;;;;12.49;69.91;101760.00;1674703;84;21521;-56
2022/12/27 08:54:54;;;;;;;8.98;6.05;;;;;;;12.57;69.31;101765.14;1665147;84;21072;-57
2022/12/27 08:57:21;;;;;;;7.42;5.58;;;;;;;12.64;68.72;101761.55;1663156;85;21549;-57
2022/12/27 08:59:48;;;;;;;9.38;6.50;;;;;;;12.70;68.07;101758.41;1661451;84;21030;-57
2022/12/27 09:02:14;;;;;;;9.68;6.28;;;;;;;12.76;67.37;101754.40;1653639;84;21057;-56
2022/12/27 09:04:41;;;;;;;7.78;5.58;;;;;;;12.81;66.63;101751.29;1688224;80;21101;-58
2022/12/27 09:07:08;;;;;;;8.08;5.72;;;;;;;12.85;65.75;101755.58;1771432;80;21049;-58
2022/12/27 09:09:36;;;;;;;8.75;5.60;;;;;;;12.84;65.18;101760.36;1775780;80;21034;-57
2022/12/27 09:12:05;;;;;;;6.90;4.67;;;;;;;12.86;64.35;101758.59;1783005;80;21042;-57
2022/12/27 09:14:32;;;;;;;5.58;5.00;;;;;;;12.86;64.15;101753.38;1760652;80;21067;-57
2022/12/27 09:16:59;;;;;;;6.65;4.20;;;;;;;12.88;63.70;101746.38;1756738;81;21082;-57
2022/12/27 09:19:27;;;;;;;6.55;4.60;;;;;;;12.92;63.47;101737.59;1765381;80;20979;-57
2022/12/27 09:21:54;;;;;;;7.75;4.72;;;;;;;12.97;63.42;101741.02;1760333;80;21493;-57
2022/12/27 09:24:21;;;;;;;8.18;6.70;;;;;;;13.04;62.97;101737.43;1776057;80;21019;-57
2022/12/27 09:26:47;;;;;;;19.85;14.68;;;;;;;13.13;62.11;101736.42;1757365;80;20971;-57
2022/12/27 09:29:14;;;;;;;10.48;9.23;;;;;;;13.20;61.62;101729.34;1768976;80;21082;-58
2022/12/27 09:31:41;;;;;;;7.90;6.08;;;;;;;13.27;60.98;101726.59;1767616;80;21014;-57
2022/12/27 09:34:10;;;;;;;6.03;5.30;;;;;;;13.35;60.54;101723.87;1766647;80;21688;-58
2022/12/27 09:36:39;;;;;;;6.55;5.37;;;;;;;13.40;59.88;101725.50;1768230;80;21053;-57
2022/12/27 09:39:06;;;;;;;6.65;5.03;;;;;;;13.47;59.82;101721.02;1764258;80;21049;-57
2022/12/27 09:41:59;;;;;;;5.40;4.50;;;;;;;13.51;59.54;101722.25;1765837;80;21014;-58
2022/12/27 09:44:44;;;;;;;8.73;5.25;;;;;;;13.57;59.21;101712.12;1757445;80;21029;-57
2022/12/27 09:47:28;;;;;;;6.92;5.78;;;;;;;13.61;58.63;101705.94;1751897;79;20991;-57
2022/12/27 09:49:59;;;;;;;7.65;6.33;;;;;;;13.61;58.53;101708.55;1764179;80;21053;-56
2022/12/27 09:52:33;;;;;;;;;;;;;;;13.61;58.59;101705.50;1761060;80;21063;-57
2022/12/27 09:55:33;;;;;;;7.83;6.12;;;;;;;13.62;58.82;101705.06;1755859;80;20092;-57
2022/12/27 09:58:11;;;;;;;8.20;5.40;;;;;;;13.60;58.80;101695.08;1771615;80;21117;-56
2022/12/27 10:00:38;;;;;;;6.47;5.12;;;;;;;13.60;58.54;101688.06;1682721;83;21020;-57
2022/12/27 10:03:05;;;;;;;6.15;4.90;;;;;;;13.60;58.29;101681.53;1693933;83;21099;-57
2022/12/27 10:05:34;;;;;;;8.08;5.60;;;;;;;13.62;58.04;101673.68;1669625;83;21070;-57
2022/12/27 10:08:49;;;;;;;6.37;5.53;;;;;;;13.66;58.03;101680.58;1683536;83;21506;-57
2022/12/27 10:11:46;;;;;;;6.15;5.35;;;;;;;13.69;57.68;101675.27;1716772;82;21009;-58
2022/12/27 10:14:26;;;;;;;6.78;5.37;;;;;;;13.69;57.50;101672.65;1692872;83;21094;-57
2022/12/27 10:17:24;;;;;;;8.93;5.50;;;;;;;13.68;57.45;101657.86;1692419;84;21066;-57
2022/12/27 10:20:06;;;;;;;6.72;5.62;;;;;;;13.67;57.33;101654.81;1700881;82;21563;-58
2022/12/27 10:22:40;;;;;;;8.05;5.53;;;;;;;13.67;57.66;101648.28;1691019;83;21064;-58
2022/12/27 10:25:13;;;;;;;6.87;5.58;;;;;;;13.72;57.42;101635.98;1634298;86;21053;-57
2022/12/27 10:27:40;;;;;;;9.55;6.05;;;;;;;13.74;57.58;101628.53;1641876;86;21101;-58
2022/12/27 10:30:19;;;;;;;6.20;5.33;;;;;;;13.80;57.28;101626.22;1628815;87;21110;-57
2022/12/27 10:32:46;;;;;;;6.58;5.95;;;;;;;13.81;56.83;101628.80;1611716;87;21140;-57
2022/12/27 10:35:18;;;;;;;8.75;5.15;;;;;;;13.81;56.67;101627.92;1607438;86;21089;-58
2022/12/27 10:37:45;;;;;;;6.47;4.80;;;;;;;13.80;56.44;101620.98;1599855;88;21585;-59
2022/12/27 10:40:46;;;;;;;6.37;5.10;;;;;;;13.78;56.14;101613.63;1588964;89;21220;-58
2022/12/27 10:43:17;;;;;;;8.25;5.87;;;;;;;13.77;55.89;101606.21;1593788;89;21115;-58
2022/12/27 10:45:44;;;;;;;9.05;4.95;;;;;;;13.80;56.06;101602.67;1612343;88;21164;-57
2022/12/27 10:48:28;;;;;;;5.72;4.97;;;;;;;13.81;55.91;101601.77;1587587;89;21081;-58
2022/12/27 10:51:00;;;;;;;6.33;5.22;;;;;;;13.84;55.77;101592.56;1600310;89;21113;-57
2022/12/27 10:53:34;;;;;;;9.55;5.65;;;;;;;13.86;55.75;101592.08;1598696;89;21860;-58
2022/12/27 10:56:11;;;;;;;10.88;5.92;;;;;;;13.88;56.67;101585.05;1566873;89;21549;-58
2022/12/27 10:58:47;;;;;;;10.10;5.62;;;;;;;13.92;57.37;101580.16;1580297;89;21055;-58
2022/12/27 11:01:23;;;;;;;9.95;6.33;;;;;;;13.91;57.57;101584.97;1579787;89;21181;-57
2022/12/27 11:03:51;;;;;;;8.50;5.67;;;;;;;13.86;57.90;101598.62;1581539;90;21039;-59
2022/12/27 11:06:23;;;;;;;6.72;5.65;;;;;;;13.82;58.11;101598.27;1578074;89;21079;-57
2022/12/27 11:08:52;;;;;;;5.53;4.85;;;;;;;13.81;57.52;101583.45;1571780;89;21586;-58
2022/12/27 11:11:24;;;;;;;5.55;5.03;;;;;;;13.84;57.01;101580.78;1608422;89;21033;-59
2022/12/27 11:13:51;;;;;;;9.73;6.00;;;;;;;13.89;56.56;101575.86;1596800;89;21621;-58
2022/12/27 11:16:30;;;;;;;5.75;5.10;;;;;;;13.94;56.21;101590.16;1594241;89;21111;-59
2022/12/27 11:18:58;;;;;;;5.95;4.95;;;;;;;13.98;56.19;101589.19;1619972;87;21051;-58
2022/12/27 11:21:27;;;;;;;7.33;5.70;;;;;;;14.05;56.00;101584.24;1611599;87;21058;-58
2022/12/27 11:23:57;;;;;;;5.92;5.28;;;;;;;14.12;55.28;101575.33;1625484;87;21074;-59
2022/12/27 11:26:29;;;;;;;7.97;5.47;;;;;;;14.19;55.54;101576.92;1628257;86;21514;-59
2022/12/27 11:28:58;;;;;;;10.45;6.25;;;;;;;14.25;55.88;101570.23;1626563;86;21055;-59
2022/12/27 11:31:35;;;;;;;9.05;6.12;;;;;;;14.31;56.27;101564.02;1635601;86;21038;-58
2022/12/27 11:34:07;;;;;;;6.15;5.05;;;;;;;14.32;56.48;101552.19;1631129;86;21093;-58
2022/12/27 11:36:39;;;;;;;5.60;4.97;;;;;;;14.33;56.48;101547.38;1592238;88;21116;-59
2022/12/27 11:39:06;;;;;;;6.55;5.05;;;;;;;14.32;56.53;101548.26;1608993;87;21054;-58
2022/12/27 11:41:49;;;;;;;6.60;5.20;;;;;;;14.27;56.63;101557.97;1602362;88;21091;-59
2022/12/27 11:44:24;;;;;;;;;;;;;;;14.21;56.98;101561.17;1579196;89;21728;-59
2022/12/27 11:47:07;;;;;;;9.13;5.47;;;;;;;14.14;57.15;101567.44;1580341;89;20137;-59
2022/12/27 11:49:47;;;;;;;8.28;4.97;;;;;;;14.04;57.53;101565.49;1592929;88;21635;-58
2022/12/27 11:52:32;;;;;;;10.50;5.97;;;;;;;13.95;57.65;101567.47;1581708;88;21169;-58
2022/12/27 11:55:17;;;;;;;10.23;6.10;;;;;;;13.88;57.29;101561.52;1595391;89;21059;-58
2022/12/27 11:57:55;;;;;;;12.78;6.28;;;;;;;13.82;57.78;101559.03;1731173;80;21188;-58
2022/12/27 12:00:25;;;;;;;7.75;6.28;;;;;;;13.77;58.22;101550.41;1726359;81;21525;-58
2022/12/27 12:03:23;;;;;;;9.58;5.90;;;;;;;13.74;58.36;101550.50;1727823;81;21027;-58
2022/12/27 12:06:10;;;;;;;8.80;5.37;;;;;;;13.69;58.80;101565.41;1721240;81;21547;-58
2022/12/27 12:09:06;;;;;;;8.68;6.00;;;;;;;13.63;58.90;101574.70;1725185;81;21460;-59
2022/12/27 12:11:56;;;;;;;12.78;5.95;;;;;;;13.59;58.86;101562.59;1733986;82;21218;-58
2022/12/27 12:14:45;;;;;;;9.95;6.17;;;;;;;13.54;59.15;101557.92;1725304;81;22189;-58
2022/12/27 12:17:37;;;;;;;10.53;6.42;;;;;;;13.50;59.68;101551.00;1685797;83;21018;-59
2022/12/27 12:20:38;;;;;;;10.28;6.33;;;;;;;13.43;60.46;101567.29;1729887;82;20995;-59
2022/12/27 12:23:28;;;;;;;29.25;16.95;;;;;;;13.38;60.73;101569.56;1705712;83;21608;-58
2022/12/27 12:26:15;;;;;;;13.95;8.58;;;;;;;13.33;60.68;101571.42;1648294;85;21093;-59
2022/12/27 12:28:59;;;;;;;8.55;6.70;;;;;;;13.31;60.47;101566.23;1657673;84;21026;-62
2022/12/27 12:32:03;;;;;;;9.25;7.00;;;;;;;13.28;60.36;101566.72;1662240;86;21118;-58
2022/12/27 12:34:52;;;;;;;10.03;6.60;;;;;;;13.25;60.41;101566.80;1646495;86;21048;-57
2022/12/27 12:37:50;;;;;;;7.60;6.08;;;;;;;13.18;60.35;101565.18;1651835;86;21055;-57
2022/12/27 12:40:31;;;;;;;10.15;7.00;;;;;;;13.18;60.31;101563.88;1646450;86;21082;-58
2022/12/27 12:43:04;;;;;;;8.63;6.35;;;;;;;13.23;60.42;101579.03;1644149;86;21160;-57
2022/12/27 12:46:02;;;;;;;7.80;6.45;;;;;;;13.22;60.44;101588.62;1653065;85;21066;-56
2022/12/27 12:48:49;;;;;;;7.60;6.65;;;;;;;13.22;60.19;101595.59;1628076;87;21531;-62
2022/12/27 12:51:54;;;;;;;7.90;7.10;;;;;;;13.18;59.85;101595.23;1616228;87;21526;-57
2022/12/27 12:54:47;;;;;;;8.80;7.90;;;;;;;13.12;59.19;101613.64;1592618;89;21067;-57
2022/12/27 12:57:28;;;;;;;11.20;8.93;;;;;;;12.96;58.84;101618.27;1622955;86;21112;-60
2022/12/27 13:00:39;;;;;;;9.43;8.45;;;;;;;12.79;58.54;101618.55;1631621;87;21064;-57
2022/12/27 13:03:48;;;;;;;12.43;9.30;;;;;;;12.61;58.88;101614.92;1625749;86;21069;-55
2022/12/27 13:12:27;;;;;;;9.85;8.78;;;;;;;10.98;63.60;101604.48;1815157;78;26577;-57
2022/12/27 13:15:05;;;;;;;11.90;9.95;;;;;;;11.65;61.20;101599.36;1756094;80;21006;-57
2022/12/27 13:18:00;;;;;;;10.88;9.53;;;;;;;11.70;60.65;101602.38;1727804;81;21054;-57
2022/12/27 13:20:49;;;;;;;11.83;9.45;;;;;;;11.63;60.73;101606.33;1720010;82;21058;-57
2022/12/27 13:23:39;;;;;;;9.68;8.68;;;;;;;11.60;61.01;101601.17;1664427;84;21078;-57
2022/12/27 13:26:42;;;;;;;12.10;9.20;;;;;;;11.59;60.89;101604.65;1653251;85;21033;-58
2022/12/27 13:29:32;;;;;;;11.60;9.63;;;;;;;11.54;60.99;101607.77;1661271;84;21074;-57
2022/12/27 13:32:19;;;;;;;10.85;9.73;;;;;;;11.46;61.15;101606.10;1659592;85;21116;-57
2022/12/27 13:35:26;;;;;;;15.23;11.30;;;;;;;11.41;61.31;101606.63;1705064;82;21082;-57
2022/12/27 13:38:04;;;;;;;11.08;9.60;;;;;;;11.38;61.55;101610.98;1645626;85;21100;-57
2022/12/27 13:41:00;;;;;;;10.43;9.30;;;;;;;11.39;61.83;101605.77;1642842;86;21342;-57
2022/12/27 13:43:50;;;;;;;10.63;9.38;;;;;;;11.37;61.46;101610.11;1582322;89;21616;-57
2022/12/27 13:47:00;;;;;;;10.23;8.70;;;;;;;11.36;61.69;101601.89;1605834;89;21112;-57
2022/12/27 13:49:54;;;;;;;9.88;8.65;;;;;;;11.38;61.66;101599.25;1603383;89;21251;-56
2022/12/27 13:52:41;;;;;;;19.95;15.20;;;;;;;11.40;61.65;101593.15;1561434;89;21615;-56
2022/12/27 13:55:29;;;;;;;26.70;22.60;;;;;;;11.41;61.42;101594.02;1573440;89;21662;-58
2022/12/27 13:58:13;;;;;;;18.80;14.38;;;;;;;11.40;61.54;101607.48;1579484;89;21017;-57
2022/12/27 14:00:53;;;;;;;11.03;9.60;;;;;;;11.42;61.60;101636.13;1593482;88;21127;-58